Time;durP1;ratioP1;P1;durP2;ratioP2;P2;SDS_P1;SDS_P2;PMS_P1;PMS_P2;Temp;Humidity;BMP_temperature;BMP_pressure;BME280_temperature;BME280_humidity;BME280_pressure;Samples;Min_cycle;Max_cycle;Signal;HPM_P1;HPM_P2
2021/07/09 00:01:22;;;;;;;6.90;4.80;;;15.80;99.90;;;;;;5051957;28;20578;-66
2021/07/09 00:03:49;;;;;;;6.87;4.83;;;15.90;99.90;;;;;;5052154;28;20450;-67
2021/07/09 00:06:18;;;;;;;7.20;4.00;;;15.80;99.90;;;;;;5052293;28;20506;-66
2021/07/09 00:08:44;;;;;;;6.90;4.50;;;15.80;99.90;;;;;;5052565;28;20961;-66
2021/07/09 00:11:11;;;;;;;5.90;4.57;;;15.80;99.90;;;;;;5051288;28;20511;-66
2021/07/09 00:13:40;;;;;;;4.97;4.47;;;15.80;99.90;;;;;;5052361;28;20966;-66
2021/07/09 00:16:07;;;;;;;6.00;5.00;;;15.90;99.90;;;;;;5052015;28;20566;-66
2021/07/09 00:18:34;;;;;;;6.43;5.00;;;15.90;99.90;;;;;;5052329;28;20446;-66
2021/07/09 00:21:01;;;;;;;5.63;5.03;;;15.90;99.90;;;;;;5051113;28;20471;-66
2021/07/09 00:23:28;;;;;;;6.33;4.47;;;15.90;99.90;;;;;;5052120;28;20448;-67
2021/07/09 00:25:55;;;;;;;8.00;5.47;;;15.90;99.90;;;;;;5051717;28;20454;-66
2021/07/09 00:28:22;;;;;;;7.07;5.20;;;15.90;99.90;;;;;;5052019;28;20930;-68
2021/07/09 00:30:51;;;;;;;6.07;5.43;;;15.90;99.90;;;;;;5050787;28;20448;-68
2021/07/09 00:33:17;;;;;;;10.17;5.97;;;15.90;99.90;;;;;;5051712;28;20452;-66
2021/07/09 00:35:44;;;;;;;5.40;4.90;;;16.00;99.90;;;;;;5051788;28;20472;-68
2021/07/09 00:38:11;;;;;;;6.43;5.30;;;15.90;99.90;;;;;;5051123;28;20942;-66
2021/07/09 00:40:39;;;;;;;8.83;5.97;;;16.00;99.90;;;;;;5050743;28;20463;-71
2021/07/09 00:43:06;;;;;;;6.10;5.50;;;16.00;99.90;;;;;;5051645;28;20543;-66
2021/07/09 00:45:33;;;;;;;7.93;5.13;;;16.00;99.90;;;;;;5051575;28;20594;-69
2021/07/09 00:48:01;;;;;;;6.33;5.30;;;16.00;99.90;;;;;;5050878;28;20450;-67
2021/07/09 00:50:28;;;;;;;8.30;5.10;;;16.00;99.90;;;;;;5050726;28;20958;-67
2021/07/09 00:52:55;;;;;;;6.60;5.63;;;16.00;99.90;;;;;;5051111;28;20476;-67
2021/07/09 00:55:23;;;;;;;6.50;5.63;;;16.00;99.90;;;;;;5051265;28;20440;-67
2021/07/09 00:57:51;;;;;;;6.93;5.23;;;16.00;99.90;;;;;;5050402;28;20484;-68
2021/07/09 01:00:20;;;;;;;6.97;5.70;;;16.00;99.90;;;;;;5050621;28;20470;-67
2021/07/09 01:02:48;;;;;;;7.00;5.03;;;16.00;99.90;;;;;;5051068;28;21024;-67
2021/07/09 01:05:17;;;;;;;6.00;4.70;;;16.00;99.90;;;;;;5051416;28;20448;-66
2021/07/09 01:07:44;;;;;;;7.47;5.00;;;16.00;99.90;;;;;;5049646;28;20440;-67
2021/07/09 01:10:13;;;;;;;9.30;6.13;;;15.90;99.90;;;;;;5049750;28;20954;-67
2021/07/09 01:12:40;;;;;;;6.63;5.03;;;15.90;99.90;;;;;;5050770;28;21008;-67
2021/07/09 01:15:10;;;;;;;7.27;5.90;;;15.90;99.90;;;;;;5050761;28;20852;-68
2021/07/09 01:17:37;;;;;;;9.13;5.60;;;15.90;99.90;;;;;;5050676;28;20490;-67
2021/07/09 01:20:07;;;;;;;9.57;5.23;;;15.80;99.90;;;;;;5051000;28;20574;-69
2021/07/09 01:22:38;;;;;;;5.70;5.00;;;15.80;99.90;;;;;;5051795;28;20532;-66
2021/07/09 01:25:09;;;;;;;13.00;5.10;;;15.80;99.90;;;;;;5051041;28;20452;-67
2021/07/09 01:27:37;;;;;;;6.93;4.57;;;15.70;99.90;;;;;;5050571;28;20425;-66
2021/07/09 01:30:06;;;;;;;8.10;5.40;;;15.80;99.90;;;;;;5050187;28;20448;-66
2021/07/09 01:32:33;;;;;;;6.83;5.13;;;15.80;99.90;;;;;;5050491;28;20474;-67
2021/07/09 01:34:59;;;;;;;5.77;4.67;;;15.70;99.90;;;;;;5049873;28;20440;-69
2021/07/09 01:37:26;;;;;;;7.67;4.90;;;15.70;99.90;;;;;;5049793;28;20475;-67
2021/07/09 01:39:54;;;;;;;11.80;5.43;;;15.70;99.90;;;;;;5049102;28;20456;-69
2021/07/09 01:42:22;;;;;;;10.93;5.50;;;15.70;99.90;;;;;;5050350;28;20563;-66
2021/07/09 01:44:49;;;;;;;7.23;5.50;;;15.80;99.90;;;;;;5049543;28;20531;-68
2021/07/09 01:47:16;;;;;;;6.50;5.90;;;15.70;99.90;;;;;;5049721;28;20561;-67
2021/07/09 01:49:55;;;;;;;7.57;6.50;;;15.80;99.90;;;;;;5050059;28;20452;-66
2021/07/09 01:52:23;;;;;;;8.07;5.73;;;15.70;99.90;;;;;;5050219;28;20474;-69
2021/07/09 01:54:50;;;;;;;8.20;6.67;;;15.80;99.90;;;;;;5050373;28;20993;-67
2021/07/09 01:57:17;;;;;;;7.10;6.40;;;15.70;99.90;;;;;;5049590;28;20484;-66
2021/07/09 01:59:46;;;;;;;8.20;7.40;;;15.70;99.90;;;;;;5049246;28;20454;-67
2021/07/09 02:02:14;;;;;;;7.70;6.80;;;15.80;99.90;;;;;;5049904;28;20474;-66
2021/07/09 02:04:48;;;;;;;9.33;5.70;;;15.70;99.90;;;;;;5050183;28;20491;-67
2021/07/09 02:07:15;;;;;;;10.13;7.90;;;15.70;99.90;;;;;;5049571;28;20438;-66
2021/07/09 02:09:45;;;;;;;6.97;5.90;;;15.70;99.90;;;;;;5049293;28;20448;-66
2021/07/09 02:12:12;;;;;;;8.37;5.90;;;15.70;99.90;;;;;;5049852;28;20551;-67
2021/07/09 02:14:40;;;;;;;12.30;5.87;;;15.70;99.90;;;;;;5049706;28;20444;-67
2021/07/09 02:17:10;;;;;;;7.73;6.37;;;15.70;99.90;;;;;;5049337;28;20476;-67
2021/07/09 02:19:38;;;;;;;10.07;6.27;;;15.70;99.90;;;;;;5048965;28;20444;-68
2021/07/09 02:22:06;;;;;;;8.20;5.60;;;15.70;99.90;;;;;;5049577;28;20478;-69
2021/07/09 02:24:34;;;;;;;7.77;6.10;;;15.70;99.90;;;;;;5049719;28;20456;-67
2021/07/09 02:27:01;;;;;;;7.43;6.10;;;15.70;99.90;;;;;;5049079;28;20488;-69
2021/07/09 02:29:29;;;;;;;9.50;6.93;;;15.70;99.90;;;;;;5049074;28;20470;-67
2021/07/09 02:31:56;;;;;;;6.03;5.33;;;15.60;99.90;;;;;;5049584;28;20498;-67
2021/07/09 02:34:25;;;;;;;6.80;6.10;;;15.70;99.90;;;;;;5049735;28;20448;-67
2021/07/09 02:36:51;;;;;;;8.33;6.27;;;15.60;99.90;;;;;;5049469;28;20839;-67
2021/07/09 02:39:19;;;;;;;8.07;6.53;;;15.60;99.90;;;;;;5048805;28;20542;-67
2021/07/09 02:41:45;;;;;;;10.20;6.77;;;15.60;99.90;;;;;;5049194;28;20498;-67
2021/07/09 02:44:12;;;;;;;8.27;6.50;;;15.60;99.90;;;;;;5049465;28;20447;-66
2021/07/09 02:46:39;;;;;;;6.90;5.80;;;15.60;99.90;;;;;;5049030;28;20440;-67
2021/07/09 02:49:06;;;;;;;6.97;6.27;;;15.60;99.90;;;;;;5048597;28;20454;-67
2021/07/09 02:51:34;;;;;;;11.00;5.50;;;15.50;99.90;;;;;;5049145;28;20471;-67
2021/07/09 02:54:01;;;;;;;6.50;5.87;;;15.60;99.90;;;;;;5049250;28;20535;-67
2021/07/09 02:56:28;;;;;;;6.50;5.80;;;15.60;99.90;;;;;;5051886;28;20863;-67
2021/07/09 02:58:58;;;;;;;7.20;5.97;;;15.50;99.90;;;;;;5053285;28;20526;-67
2021/07/09 03:01:25;;;;;;;7.80;5.20;;;15.50;99.90;;;;;;5053404;28;20478;-67
2021/07/09 03:03:52;;;;;;;9.70;6.50;;;15.60;99.90;;;;;;5053389;28;20444;-69
2021/07/09 03:06:19;;;;;;;10.83;6.80;;;15.50;99.90;;;;;;5052922;28;20446;-66
2021/07/09 03:08:47;;;;;;;7.13;5.93;;;15.50;99.90;;;;;;5052871;28;20449;-68
2021/07/09 03:11:14;;;;;;;23.63;6.80;;;15.50;99.90;;;;;;5052255;28;20472;-68
2021/07/09 03:13:41;;;;;;;7.70;6.80;;;15.60;99.90;;;;;;5052988;28;20444;-66
2021/07/09 03:16:08;;;;;;;11.00;6.87;;;15.50;99.90;;;;;;5052663;28;20452;-67
2021/07/09 03:18:35;;;;;;;9.53;8.20;;;15.50;99.90;;;;;;5052948;28;20446;-67
2021/07/09 03:21:02;;;;;;;7.97;6.07;;;15.50;99.90;;;;;;5051486;28;20474;-68
2021/07/09 03:23:29;;;;;;;10.60;7.07;;;15.50;99.90;;;;;;5052767;28;20957;-67
2021/07/09 03:26:00;;;;;;;9.43;6.97;;;15.50;99.90;;;;;;5052588;28;20447;-66
2021/07/09 03:28:27;;;;;;;7.97;6.80;;;15.50;99.90;;;;;;5052767;28;20957;-67
2021/07/09 03:30:54;;;;;;;8.37;7.07;;;15.50;99.90;;;;;;5051614;28;20938;-66
2021/07/09 03:33:21;;;;;;;11.03;7.17;;;15.50;99.90;;;;;;5052688;28;20539;-67
2021/07/09 03:35:48;;;;;;;10.73;6.50;;;15.50;99.90;;;;;;5052340;28;20869;-67
2021/07/09 03:38:15;;;;;;;11.07;8.20;;;15.50;99.90;;;;;;5052365;28;20479;-67
2021/07/09 03:40:42;;;;;;;10.20;7.37;;;15.40;99.90;;;;;;5051474;28;20455;-67
2021/07/09 03:43:10;;;;;;;8.20;6.53;;;15.40;99.90;;;;;;5052563;28;20819;-68
2021/07/09 03:45:37;;;;;;;8.87;7.17;;;15.40;99.90;;;;;;5052494;28;20450;-68
2021/07/09 03:48:05;;;;;;;8.77;7.40;;;15.50;99.90;;;;;;5052140;28;20454;-66
2021/07/09 03:50:31;;;;;;;9.40;7.70;;;15.50;99.90;;;;;;5051532;28;20826;-67
2021/07/09 03:52:58;;;;;;;8.60;7.23;;;15.50;99.90;;;;;;5052469;28;20475;-66
2021/07/09 03:55:25;;;;;;;8.83;7.60;;;15.50;99.90;;;;;;5052790;28;20893;-69
2021/07/09 03:57:52;;;;;;;9.50;7.40;;;15.40;99.90;;;;;;5052209;28;20486;-66
2021/07/09 04:00:20;;;;;;;8.17;7.37;;;15.40;99.90;;;;;;5051336;28;20472;-67
2021/07/09 04:02:47;;;;;;;9.67;7.50;;;15.40;99.90;;;;;;5051611;28;20464;-67
2021/07/09 04:05:14;;;;;;;9.50;7.10;;;15.40;99.90;;;;;;5052175;28;20448;-67
2021/07/09 04:07:41;;;;;;;9.77;8.10;;;15.40;99.90;;;;;;5050559;28;20823;-68
2021/07/09 04:10:10;;;;;;;15.43;9.83;;;15.40;99.90;;;;;;5051419;28;20456;-68
2021/07/09 04:12:36;;;;;;;8.27;6.93;;;15.30;99.90;;;;;;5051663;28;21005;-68
2021/07/09 04:15:04;;;;;;;8.40;7.13;;;15.30;99.90;;;;;;5051897;28;20964;-67
2021/07/09 04:17:32;;;;;;;8.50;6.90;;;15.30;99.90;;;;;;5051180;28;20490;-68
2021/07/09 04:19:59;;;;;;;8.37;7.47;;;15.30;99.90;;;;;;5051216;28;20462;-68
2021/07/09 04:22:26;;;;;;;8.33;7.47;;;15.30;99.90;;;;;;5051935;28;20466;-67
2021/07/09 04:24:52;;;;;;;9.40;6.80;;;15.30;99.90;;;;;;5051828;28;20475;-67
2021/07/09 04:27:19;;;;;;;9.83;7.40;;;15.30;99.90;;;;;;5051338;28;20535;-66
2021/07/09 04:29:46;;;;;;;8.97;7.47;;;15.30;99.90;;;;;;5051010;28;20435;-68
2021/07/09 04:32:14;;;;;;;9.70;7.37;;;15.30;99.90;;;;;;5051599;28;20487;-67
2021/07/09 04:34:42;;;;;;;8.80;7.27;;;15.30;99.90;;;;;;5051640;28;20888;-67
2021/07/09 04:37:09;;;;;;;9.00;7.17;;;15.30;99.90;;;;;;5051376;28;20475;-67
2021/07/09 04:39:37;;;;;;;9.10;7.30;;;15.30;99.90;;;;;;5050558;28;20526;-67
2021/07/09 04:42:05;;;;;;;9.23;7.17;;;15.30;99.90;;;;;;5051578;28;20978;-67
2021/07/09 04:44:32;;;;;;;8.30;6.57;;;15.30;99.90;;;;;;5051038;28;20455;-66
2021/07/09 04:46:59;;;;;;;8.13;6.83;;;15.30;99.90;;;;;;5050978;28;20446;-68
2021/07/09 04:49:26;;;;;;;9.93;8.77;;;15.30;99.90;;;;;;5050171;28;20448;-70
2021/07/09 04:51:54;;;;;;;13.07;8.20;;;15.30;99.90;;;;;;5050321;28;20486;-68
2021/07/09 04:54:22;;;;;;;7.53;6.00;;;15.30;99.90;;;;;;5050974;28;20947;-67
2021/07/09 04:56:51;;;;;;;12.53;8.80;;;15.30;99.90;;;;;;5050843;28;20481;-66
2021/07/09 04:59:18;;;;;;;9.00;7.80;;;15.30;99.90;;;;;;5050504;28;20461;-68
2021/07/09 05:01:45;;;;;;;8.37;7.57;;;15.30;99.90;;;;;;5050884;28;21163;-65
2021/07/09 05:04:12;;;;;;;8.67;6.50;;;15.20;99.90;;;;;;5051440;28;20444;-66
2021/07/09 05:06:38;;;;;;;8.73;6.77;;;15.20;99.90;;;;;;5050638;28;20444;-67
2021/07/09 05:09:08;;;;;;;7.30;6.57;;;15.20;99.90;;;;;;5050277;28;20531;-68
2021/07/09 05:11:37;;;;;;;8.93;6.40;;;15.20;99.90;;;;;;5050074;28;21035;-64
2021/07/09 05:14:04;;;;;;;7.13;6.30;;;15.20;99.90;;;;;;5049406;28;20935;-66
2021/07/09 05:16:33;;;;;;;9.37;8.50;;;15.20;99.90;;;;;;5048329;28;20448;-66
2021/07/09 05:19:00;;;;;;;8.13;7.33;;;15.20;99.90;;;;;;5048872;28;20486;-65
2021/07/09 05:21:27;;;;;;;7.87;7.00;;;15.20;99.90;;;;;;5049504;28;20468;-66
2021/07/09 05:23:55;;;;;;;7.97;7.17;;;15.30;99.90;;;;;;5049990;28;20446;-64
2021/07/09 05:26:24;;;;;;;7.63;6.57;;;15.30;99.90;;;;;;5049358;28;20448;-64
2021/07/09 05:28:51;;;;;;;9.90;6.47;;;15.30;99.90;;;;;;5049289;28;20447;-65
2021/07/09 05:34:00;;;;;;;6.70;5.87;;;15.30;99.90;;;;;;5050451;28;20444;-66
2021/07/09 05:36:27;;;;;;;5.83;4.90;;;15.40;99.90;;;;;;5050133;28;20531;-66
2021/07/09 05:38:54;;;;;;;7.50;6.70;;;15.40;99.90;;;;;;5050320;28;20490;-69
2021/07/09 05:41:23;;;;;;;6.67;5.97;;;15.30;99.90;;;;;;5050124;28;20990;-65
2021/07/09 05:43:50;;;;;;;9.83;7.30;;;15.40;99.90;;;;;;5050356;28;20483;-70
2021/07/09 05:46:17;;;;;;;8.20;6.83;;;15.40;99.90;;;;;;5049946;28;20458;-66
2021/07/09 05:48:44;;;;;;;8.53;7.03;;;15.40;99.90;;;;;;5050003;28;20539;-66
2021/07/09 05:51:10;;;;;;;8.03;7.20;;;15.40;99.90;;;;;;5049058;28;20464;-69
2021/07/09 05:53:38;;;;;;;8.20;7.33;;;15.40;99.90;;;;;;5049368;28;20551;-66
2021/07/09 05:56:05;;;;;;;7.40;6.27;;;15.40;99.90;;;;;;5049177;28;20538;-68
2021/07/09 05:58:33;;;;;;;9.07;6.83;;;15.40;99.90;;;;;;5050038;28;20840;-65
2021/07/09 06:01:00;;;;;;;8.00;7.20;;;15.40;99.90;;;;;;5049006;28;20566;-65
2021/07/09 06:03:27;;;;;;;8.20;7.40;;;15.40;99.90;;;;;;5049450;28;20447;-67
2021/07/09 06:05:54;;;;;;;9.17;7.30;;;15.40;99.90;;;;;;5049320;28;20538;-65
2021/07/09 06:08:21;;;;;;;10.50;7.47;;;15.40;99.90;;;;;;5049873;28;20887;-66
2021/07/09 06:10:48;;;;;;;8.27;7.13;;;15.40;99.90;;;;;;5048907;28;20451;-65
2021/07/09 06:13:15;;;;;;;7.90;7.10;;;15.40;99.90;;;;;;5050103;28;20535;-66
2021/07/09 06:15:43;;;;;;;8.80;7.27;;;15.40;99.90;;;;;;5049519;28;20444;-66
2021/07/09 06:18:10;;;;;;;9.93;8.27;;;15.40;99.90;;;;;;5049105;28;20480;-66
2021/07/09 06:20:37;;;;;;;9.70;8.70;;;15.50;99.90;;;;;;5048894;28;20444;-66
2021/07/09 06:23:04;;;;;;;8.60;7.63;;;15.50;99.90;;;;;;5049870;28;20556;-66
2021/07/09 06:25:31;;;;;;;9.60;6.80;;;15.60;99.90;;;;;;5049891;28;20444;-65
2021/07/09 06:27:58;;;;;;;9.93;6.93;;;15.60;99.90;;;;;;5049134;28;20462;-66
2021/07/09 06:30:25;;;;;;;8.93;7.33;;;15.70;99.90;;;;;;5048172;28;20450;-66
2021/07/09 06:32:54;;;;;;;8.07;7.27;;;15.60;99.90;;;;;;5049169;28;20468;-65
2021/07/09 06:35:21;;;;;;;9.30;7.70;;;15.60;99.90;;;;;;5049615;28;20447;-65
2021/07/09 06:37:47;;;;;;;9.90;7.83;;;15.60;99.90;;;;;;5048809;28;20485;-66
2021/07/09 06:40:15;;;;;;;8.97;7.70;;;15.50;99.90;;;;;;5048497;28;20452;-66
2021/07/09 06:42:42;;;;;;;9.30;8.40;;;15.50;99.90;;;;;;5049213;28;20468;-66
2021/07/09 06:45:09;;;;;;;10.77;9.67;;;15.50;99.90;;;;;;5049294;28;20452;-67
2021/07/09 06:47:36;;;;;;;9.30;8.30;;;15.50;99.90;;;;;;5049000;28;20446;-65
2021/07/09 06:50:05;;;;;;;9.30;8.40;;;15.50;99.90;;;;;;5048395;28;20903;-67
2021/07/09 06:52:32;;;;;;;11.20;9.40;;;15.50;99.90;;;;;;5041614;28;20472;-66
2021/07/09 06:54:59;;;;;;;10.83;8.93;;;15.50;99.90;;;;;;5048386;28;20523;-67
2021/07/09 06:57:26;;;;;;;9.57;8.50;;;15.60;99.90;;;;;;5047976;28;20820;-67
2021/07/09 06:59:53;;;;;;;10.73;8.83;;;15.60;99.90;;;;;;5047509;28;20448;-67
2021/07/09 07:02:20;;;;;;;9.43;7.70;;;15.70;99.90;;;;;;5048569;28;20475;-65
2021/07/09 07:04:47;;;;;;;10.03;8.70;;;15.70;99.90;;;;;;5048278;28;20470;-65
2021/07/09 07:07:15;;;;;;;9.10;8.20;;;15.80;99.90;;;;;;5047991;28;20462;-64
2021/07/09 07:09:42;;;;;;;9.03;8.10;;;15.80;99.90;;;;;;5045687;28;20474;-65
2021/07/09 07:12:10;;;;;;;9.77;8.83;;;15.90;99.90;;;;;;5047948;28;20468;-64
2021/07/09 07:14:37;;;;;;;10.47;8.20;;;15.90;99.90;;;;;;5048199;28;20454;-67
2021/07/09 07:17:04;;;;;;;9.20;7.73;;;16.00;99.90;;;;;;5048089;28;20454;-64
2021/07/09 07:19:31;;;;;;;9.13;8.23;;;16.00;99.90;;;;;;5047287;28;20487;-63
2021/07/09 07:22:02;;;;;;;9.00;8.03;;;16.00;99.90;;;;;;5048874;28;20468;-65
2021/07/09 07:24:30;;;;;;;11.23;8.07;;;16.10;99.90;;;;;;5048772;28;20455;-66
2021/07/09 07:26:57;;;;;;;10.90;9.00;;;16.20;99.90;;;;;;5048580;28;20450;-66
2021/07/09 07:29:24;;;;;;;9.33;8.43;;;16.30;99.90;;;;;;5048276;28;20470;-64
2021/07/09 07:31:51;;;;;;;8.70;7.93;;;16.40;99.90;;;;;;5049018;28;20464;-66
2021/07/09 07:34:18;;;;;;;9.10;8.07;;;16.50;99.90;;;;;;5048771;28;20444;-64
2021/07/09 07:36:45;;;;;;;8.57;7.80;;;16.60;99.90;;;;;;5048507;28;20570;-64
2021/07/09 07:39:12;;;;;;;12.43;7.83;;;16.60;99.90;;;;;;5047900;28;21005;-65
2021/07/09 07:41:41;;;;;;;9.13;7.63;;;16.70;99.90;;;;;;5048770;28;20864;-64
2021/07/09 07:44:08;;;;;;;8.20;7.40;;;16.60;99.90;;;;;;5052647;28;20822;-66
2021/07/09 07:46:34;;;;;;;12.53;8.73;;;16.60;99.90;;;;;;5052244;28;20469;-64
2021/07/09 07:49:01;;;;;;;10.33;9.20;;;16.60;99.90;;;;;;5051883;28;20451;-63
2021/07/09 07:51:29;;;;;;;8.93;8.03;;;16.70;99.90;;;;;;5052183;28;21041;-64
2021/07/09 07:53:55;;;;;;;9.00;8.10;;;16.80;99.90;;;;;;5052471;28;20957;-66
2021/07/09 07:56:22;;;;;;;9.73;8.73;;;16.90;99.90;;;;;;5051828;28;20945;-65
2021/07/09 07:58:53;;;;;;;8.83;8.03;;;17.00;99.90;;;;;;5052078;28;20502;-64
2021/07/09 08:01:20;;;;;;;8.60;7.60;;;16.90;99.90;;;;;;5051058;28;20432;-66
2021/07/09 08:03:46;;;;;;;9.07;7.40;;;16.90;99.90;;;;;;5052062;28;20293;-65
2021/07/09 08:06:13;;;;;;;8.33;7.57;;;16.80;99.90;;;;;;5051631;28;20447;-64
2021/07/09 08:08:41;;;;;;;9.33;7.37;;;16.80;99.90;;;;;;5052138;28;20452;-66
2021/07/09 08:11:07;;;;;;;8.47;7.70;;;16.80;99.90;;;;;;5051436;28;20911;-64
2021/07/09 08:13:34;;;;;;;12.67;9.03;;;16.90;99.90;;;;;;5051878;28;20444;-65
2021/07/09 08:16:03;;;;;;;10.43;7.77;;;17.00;99.90;;;;;;5051408;28;20452;-65
2021/07/09 08:18:30;;;;;;;7.90;7.07;;;17.10;99.90;;;;;;5051721;28;20567;-66
2021/07/09 08:20:57;;;;;;;7.83;7.13;;;17.20;99.90;;;;;;5050887;28;20455;-65
2021/07/09 08:23:24;;;;;;;8.20;7.33;;;17.30;99.90;;;;;;5051725;28;20448;-64
2021/07/09 08:25:51;;;;;;;15.80;7.93;;;17.50;99.90;;;;;;5051706;28;20462;-65
2021/07/09 08:28:19;;;;;;;8.53;7.37;;;17.60;99.90;;;;;;5051634;28;20638;-65
2021/07/09 08:30:46;;;;;;;9.00;7.03;;;17.60;99.90;;;;;;5050765;28;20452;-65
2021/07/09 08:33:15;;;;;;;8.60;7.70;;;17.60;99.90;;;;;;5051431;28;20455;-65
2021/07/09 08:35:42;;;;;;;7.47;6.77;;;17.60;99.90;;;;;;5051650;28;20458;-65
2021/07/09 08:38:10;;;;;;;7.23;6.53;;;17.70;99.90;;;;;;5051242;28;20475;-65
2021/07/09 08:40:37;;;;;;;8.33;6.33;;;17.80;99.90;;;;;;5050512;28;20845;-64
2021/07/09 08:43:04;;;;;;;7.40;6.53;;;18.00;99.90;;;;;;5051436;28;20448;-65
2021/07/09 08:45:31;;;;;;;6.97;6.27;;;18.30;99.90;;;;;;5051595;28;20999;-65
2021/07/09 08:47:58;;;;;;;6.80;6.10;;;18.70;99.90;;;;;;5051405;28;20452;-64
2021/07/09 08:50:26;;;;;;;7.03;5.90;;;19.00;99.90;;;;;;5050681;28;20452;-64
2021/07/09 08:52:54;;;;;;;8.57;6.33;;;19.20;99.90;;;;;;5050907;28;20472;-65
2021/07/09 08:55:21;;;;;;;7.10;6.40;;;19.40;99.90;;;;;;5051193;28;20464;-65
2021/07/09 08:57:49;;;;;;;9.80;6.90;;;19.20;99.90;;;;;;5050980;28;20456;-64
2021/07/09 09:00:41;;;;;;;8.97;6.37;;;19.40;99.90;;;;;;5050091;28;20432;-66
2021/07/09 09:03:19;;;;;;;6.97;6.27;;;19.70;99.90;;;;;;5048003;28;20962;-65
2021/07/09 09:05:49;;;;;;;8.20;6.10;;;19.60;99.90;;;;;;5050943;28;20434;-65
2021/07/09 09:08:17;;;;;;;8.37;5.70;;;19.50;99.90;;;;;;5050861;28;20530;-65
2021/07/09 09:10:45;;;;;;;7.30;5.70;;;19.40;99.90;;;;;;5049844;28;20977;-67
2021/07/09 09:13:16;;;;;;;7.67;6.40;;;19.40;99.90;;;;;;5051006;28;20827;-64
2021/07/09 09:15:45;;;;;;;7.93;7.00;;;19.50;99.90;;;;;;5050868;28;21189;-66
2021/07/09 09:18:25;;;;;;;8.57;7.20;;;19.80;99.90;;;;;;5050392;28;20451;-67
2021/07/09 09:20:58;;;;;;;7.10;6.20;;;19.60;99.90;;;;;;5050048;28;20425;-67
2021/07/09 09:23:26;;;;;;;7.70;6.90;;;19.40;99.90;;;;;;5050839;28;20444;-65
2021/07/09 09:25:53;;;;;;;8.67;6.60;;;19.40;99.90;;;;;;5050255;28;20448;-65
2021/07/09 09:28:20;;;;;;;8.37;7.50;;;19.40;99.90;;;;;;5050473;28;20440;-67
2021/07/09 09:30:53;;;;;;;9.70;6.80;;;19.50;99.90;;;;;;5049738;28;20542;-66
2021/07/09 09:33:20;;;;;;;7.63;6.93;;;19.70;99.90;;;;;;5050824;28;20473;-66
2021/07/09 09:35:50;;;;;;;8.27;7.50;;;19.80;99.90;;;;;;5050141;28;20444;-66
2021/07/09 09:38:24;;;;;;;8.07;6.90;;;20.00;99.90;;;;;;5050049;28;20497;-65
2021/07/09 09:40:50;;;;;;;10.63;6.03;;;19.90;99.90;;;;;;5049203;28;20462;-67
2021/07/09 09:43:20;;;;;;;7.77;6.97;;;20.20;99.90;;;;;;5050462;28;20797;-66
2021/07/09 09:45:57;;;;;;;7.00;6.40;;;20.50;99.90;;;;;;5050126;28;20934;-65
2021/07/09 09:48:33;;;;;;;8.57;5.93;;;20.90;99.90;;;;;;5050403;28;20432;-65
2021/07/09 09:51:01;;;;;;;7.33;5.30;;;21.10;99.90;;;;;;5049363;28;20460;-65
2021/07/09 09:53:35;;;;;;;6.73;6.13;;;21.20;99.90;;;;;;5050460;28;20534;-65
2021/07/09 09:56:06;;;;;;;6.13;5.43;;;21.40;99.90;;;;;;5049810;28;20480;-64
2021/07/09 09:58:32;;;;;;;6.13;5.47;;;21.40;99.90;;;;;;5049947;28;20893;-65
2021/07/09 10:00:59;;;;;;;5.93;5.20;;;21.40;99.90;;;;;;5049455;28;20468;-65
2021/07/09 10:03:26;;;;;;;9.70;6.03;;;20.90;99.90;;;;;;5046990;28;20449;-66
2021/07/09 10:05:53;;;;;;;8.63;5.80;;;20.80;99.90;;;;;;5041086;28;20559;-64
2021/07/09 10:08:24;;;;;;;6.20;5.50;;;20.80;99.90;;;;;;5033554;28;20444;-64
2021/07/09 10:10:53;;;;;;;5.30;4.80;;;20.70;99.90;;;;;;5032286;28;20438;-63
2021/07/09 10:13:22;;;;;;;7.33;5.67;;;20.70;99.90;;;;;;5035487;28;20455;-68
2021/07/09 10:15:50;;;;;;;6.00;5.40;;;20.70;99.90;;;;;;5040268;28;20444;-65
2021/07/09 10:18:18;;;;;;;5.17;4.67;;;20.90;99.90;;;;;;5036901;28;20451;-64
2021/07/09 10:20:47;;;;;;;6.60;5.50;;;21.20;99.90;;;;;;5040942;28;20447;-65
2021/07/09 10:23:16;;;;;;;5.80;5.30;;;21.40;99.90;;;;;;5042375;28;20449;-65
2021/07/09 10:25:46;;;;;;;6.53;5.67;;;21.40;99.90;;;;;;5039540;28;20533;-65
2021/07/09 10:28:18;;;;;;;6.47;5.70;;;21.50;99.90;;;;;;5039479;28;20450;-67
2021/07/09 10:30:45;;;;;;;5.43;4.83;;;21.70;99.90;;;;;;5038188;28;20441;-64
2021/07/09 10:33:32;;;;;;;5.50;4.23;;;21.80;99.90;;;;;;5038287;28;20531;-65
2021/07/09 10:36:01;;;;;;;7.03;5.20;;;21.60;99.90;;;;;;5039531;28;20454;-67
2021/07/09 10:38:36;;;;;;;5.40;4.63;;;21.60;99.90;;;;;;5039160;28;20445;-65
2021/07/09 10:41:12;;;;;;;7.20;5.20;;;22.00;99.90;;;;;;5038990;28;20534;-68
2021/07/09 10:43:41;;;;;;;5.63;4.70;;;22.50;99.90;;;;;;5046266;28;20439;-67
2021/07/09 10:46:08;;;;;;;9.47;5.43;;;22.90;99.90;;;;;;5047995;28;20440;-66
2021/07/09 10:48:37;;;;;;;5.60;4.50;;;23.30;99.90;;;;;;5039847;28;20456;-66
2021/07/09 10:51:05;;;;;;;6.17;5.10;;;23.40;99.90;;;;;;5038477;28;20464;-65
2021/07/09 10:53:34;;;;;;;6.70;5.17;;;23.40;99.90;;;;;;5039523;28;20935;-66
2021/07/09 10:56:02;;;;;;;6.00;4.57;;;23.40;99.90;;;;;;5045750;28;20443;-65
2021/07/09 10:58:34;;;;;;;6.03;5.00;;;23.90;99.90;;;;;;5038631;28;20531;-65
2021/07/09 11:01:12;;;;;;;5.90;5.23;;;24.00;99.90;;;;;;5038647;28;20456;-65
2021/07/09 11:03:40;;;;;;;6.17;4.83;;;23.70;99.90;;;;;;5031862;28;20539;-65
2021/07/09 11:06:09;;;;;;;6.83;4.87;;;23.80;99.90;;;;;;5031519;28;20446;-67
2021/07/09 11:09:01;;;;;;;6.77;4.67;;;23.80;99.90;;;;;;5034581;28;20445;-64
2021/07/09 11:11:47;;;;;;;7.53;4.60;;;23.60;99.90;;;;;;5028997;28;20526;-67
2021/07/09 11:14:20;;;;;;;5.93;4.40;;;23.50;99.90;;;;;;5029159;28;20427;-66
2021/07/09 11:16:50;;;;;;;8.63;5.63;;;23.60;99.90;;;;;;5031076;28;20453;-66
2021/07/09 11:19:18;;;;;;;7.00;6.37;;;23.40;99.90;;;;;;5031809;28;21258;-65
2021/07/09 11:22:01;;;;;;;6.70;5.57;;;22.90;99.90;;;;;;5032799;28;20594;-65
2021/07/09 11:24:29;;;;;;;8.53;6.60;;;22.40;99.90;;;;;;5032478;28;20429;-65
2021/07/09 11:26:58;;;;;;;9.50;6.30;;;22.10;99.90;;;;;;5032733;28;20446;-65
2021/07/09 11:29:30;;;;;;;6.63;5.77;;;22.30;99.90;;;;;;5031767;28;20871;-65
2021/07/09 11:32:00;;;;;;;6.87;6.17;;;23.20;99.90;;;;;;5032844;28;20465;-65
2021/07/09 11:34:28;;;;;;;10.80;7.00;;;23.30;99.90;;;;;;5032439;28;20459;-65
2021/07/09 11:36:57;;;;;;;7.90;7.10;;;23.20;99.90;;;;;;5032615;28;20524;-65
2021/07/09 11:39:25;;;;;;;7.33;6.63;;;23.30;99.90;;;;;;5048479;28;20490;-66
2021/07/09 11:41:59;;;;;;;8.73;6.83;;;23.80;99.90;;;;;;5044075;28;20492;-66
2021/07/09 11:44:27;;;;;;;7.17;6.10;;;24.30;99.90;;;;;;5041363;28;20928;-66
2021/07/09 11:46:57;;;;;;;8.10;7.30;;;25.00;99.90;;;;;;5040563;28;20440;-67
2021/07/09 11:49:27;;;;;;;8.90;7.73;;;25.70;99.90;;;;;;5031510;28;20449;-65
2021/07/09 11:51:58;;;;;;;8.60;7.63;;;26.00;99.90;;;;;;5030822;28;20465;-65
2021/07/09 11:54:27;;;;;;;7.93;7.13;;;26.20;99.90;;;;;;5031003;28;20523;-68
2021/07/09 11:56:57;;;;;;;22.53;9.10;;;26.60;99.90;;;;;;5031841;28;20896;-65
2021/07/09 11:59:24;;;;;;;9.23;8.27;;;25.60;99.90;;;;;;5031118;28;20494;-64
2021/07/09 12:02:10;;;;;;;10.03;9.03;;;24.70;99.90;;;;;;5032123;28;20987;-66
2021/07/09 12:04:39;;;;;;;10.83;9.73;;;24.00;99.90;;;;;;5032010;28;20440;-63
2021/07/09 12:07:21;;;;;;;10.37;9.30;;;23.10;99.90;;;;;;5039265;28;21028;-64
2021/07/09 12:09:50;;;;;;;9.83;8.80;;;22.60;99.90;;;;;;5050493;28;20518;-64
2021/07/09 12:12:19;;;;;;;11.67;9.13;;;22.70;99.90;;;;;;5051681;28;21003;-66
2021/07/09 12:15:12;;;;;;;10.93;9.70;;;23.20;99.90;;;;;;5051912;28;20463;-64
2021/07/09 12:17:42;;;;;;;9.70;8.80;;;23.80;99.90;;;;;;5041866;28;20452;-66
2021/07/09 12:20:16;;;;;;;8.90;8.00;;;24.70;99.90;;;;;;5050816;28;20859;-66
2021/07/09 12:22:47;;;;;;;12.80;9.90;;;26.20;99.90;;;;;;5052204;28;20464;-64
2021/07/09 12:25:17;;;;;;;10.10;9.20;;;27.50;99.90;;;;;;5046382;28;20440;-65
2021/07/09 12:27:45;;;;;;;11.03;8.90;;;27.40;99.90;;;;;;5041057;28;20452;-66
2021/07/09 12:30:15;;;;;;;11.33;9.17;;;27.00;99.90;;;;;;5040230;28;20437;-67
2021/07/09 12:32:54;;;;;;;10.10;8.90;;;26.00;99.90;;;;;;5042836;28;21007;-65
2021/07/09 12:35:24;;;;;;;13.53;12.27;;;25.00;99.90;;;;;;5043645;28;20444;-64
2021/07/09 12:38:03;;;;;;;13.50;11.77;;;23.40;99.90;;;;;;5040247;28;20956;-65
2021/07/09 12:40:32;;;;;;;12.70;11.50;;;22.10;99.90;;;;;;5038840;28;20554;-65
2021/07/09 12:43:14;;;;;;;11.67;10.47;;;21.50;99.90;;;;;;5036725;28;20978;-64
2021/07/09 12:45:42;;;;;;;10.20;9.20;;;21.80;99.90;;;;;;5046260;28;20437;-65
2021/07/09 12:48:10;;;;;;;9.70;8.70;;;22.60;99.90;;;;;;5031519;28;20453;-66
2021/07/09 12:50:42;;;;;;;11.37;9.47;;;23.50;99.90;;;;;;5033334;28;20478;-68
2021/07/09 12:53:19;;;;;;;9.43;8.50;;;24.40;99.90;;;;;;5042843;28;20525;-66
2021/07/09 12:55:46;;;;;;;9.30;8.50;;;25.20;99.90;;;;;;5045740;28;20442;-65